Camden On Gauley, West Virginia
Current Conditions -  °F | °C
As of 7:35 PM on Saturday 25 Oct 2014 (Local Time) from KLWB Reporting Station
Clear Clear  
Wind Chill: 59°   Ceiling: Unl
Heat Index: 59°   Visibility: 10mi
Dew Point: 44°   Wind: 5mph
Humidity: 57%   Direction: 230°SW
Pressure: 29.94"   Gusts: NA
Location:  38.37°N, 80.6°W
Report Text: KLWB 252335Z AUTO 23004KT 10SM CLR 15/07 A2994 RMK AO2 T01520068
Loading
Personal Weather Stations






























Interactive Weather Map
Tropical Storm Tracking
New forecast layout! Learn more

10-Day Weather Forecast

Advertisements
Track Severe Weather on mobile